Time;durP1;ratioP1;P1;durP2;ratioP2;P2;SDS_P1;SDS_P2;PMS_P1;PMS_P2;Temp;Humidity;BMP_temperature;BMP_pressure;BME280_temperature;BME280_humidity;BME280_pressure;Samples;Min_cycle;Max_cycle;Signal;HPM_P1;HPM_P2
2023/12/17 00:00:51;;;;;;;6.45;4.30;;;10.60;99.90;;;;;;5062608;28;20060;-65
2023/12/17 00:03:17;;;;;;;6.07;3.28;;;10.60;99.90;;;;;;5062060;28;20055;-65
2023/12/17 00:05:47;;;;;;;7.72;3.60;;;10.60;99.90;;;;;;5066011;28;20048;-65
2023/12/17 00:08:19;;;;;;;16.60;4.00;;;10.60;99.90;;;;;;5036549;28;20283;-65
2023/12/17 00:10:47;;;;;;;8.05;2.95;;;10.60;99.90;;;;;;5062740;28;20148;-65
2023/12/17 00:13:15;;;;;;;8.27;3.05;;;10.60;99.90;;;;;;5060536;28;20090;-65
2023/12/17 00:15:42;;;;;;;9.70;2.95;;;10.50;99.90;;;;;;5056782;28;20048;-65
2023/12/17 00:18:09;;;;;;;12.73;2.65;;;10.60;99.90;;;;;;5075571;28;20048;-64
2023/12/17 00:20:36;;;;;;;3.97;2.30;;;10.50;99.90;;;;;;5060877;28;20141;-64
2023/12/17 00:23:04;;;;;;;4.40;1.95;;;10.50;99.90;;;;;;5062903;28;20052;-65
2023/12/17 00:25:31;;;;;;;4.85;2.22;;;10.50;99.90;;;;;;5055629;28;20280;-65
2023/12/17 00:27:58;;;;;;;8.25;2.03;;;10.50;99.90;;;;;;5060443;28;20044;-65
2023/12/17 00:30:25;;;;;;;5.93;2.10;;;10.50;99.90;;;;;;5038019;28;20514;-65
2023/12/17 00:32:52;;;;;;;11.20;2.17;;;10.50;99.90;;;;;;5060096;28;20396;-65
2023/12/17 00:35:20;;;;;;;5.25;1.50;;;10.40;99.90;;;;;;5059748;28;20044;-65
2023/12/17 00:37:47;;;;;;;9.82;2.70;;;10.40;99.90;;;;;;5047319;28;20040;-66
2023/12/17 00:40:14;;;;;;;8.82;2.28;;;10.40;99.90;;;;;;5061550;28;20041;-65
2023/12/17 00:42:41;;;;;;;3.85;1.88;;;10.40;99.90;;;;;;5058258;28;20048;-64
2023/12/17 00:45:08;;;;;;;7.03;2.20;;;10.40;99.90;;;;;;5064631;28;20076;-63
2023/12/17 00:47:35;;;;;;;10.23;2.22;;;10.40;99.90;;;;;;5060919;28;20357;-65
2023/12/17 00:50:02;;;;;;;5.60;1.92;;;10.40;99.90;;;;;;5062543;28;20155;-63
2023/12/17 00:52:29;;;;;;;11.43;2.28;;;10.30;99.90;;;;;;5059154;28;20431;-65
2023/12/17 00:54:56;;;;;;;16.63;2.55;;;10.30;99.90;;;;;;5063708;28;20048;-63
2023/12/17 00:57:23;;;;;;;13.00;2.20;;;10.30;99.90;;;;;;5059266;28;20460;-66
2023/12/17 00:59:50;;;;;;;11.05;1.83;;;10.40;99.90;;;;;;5060561;28;20066;-65
2023/12/17 01:02:17;;;;;;;4.38;1.77;;;10.40;99.90;;;;;;5058977;28;20136;-67
2023/12/17 01:04:43;;;;;;;7.80;2.10;;;10.40;99.90;;;;;;5057863;28;20052;-64
2023/12/17 01:07:10;;;;;;;13.52;4.00;;;10.40;99.90;;;;;;5058740;28;20542;-65
2023/12/17 01:09:37;;;;;;;11.10;2.40;;;10.40;99.90;;;;;;5056271;28;20044;-65
2023/12/17 01:12:05;;;;;;;20.25;4.40;;;10.30;99.90;;;;;;5055482;28;20056;-64
2023/12/17 01:14:34;;;;;;;11.65;2.65;;;10.30;99.90;;;;;;5057527;28;20057;-66
2023/12/17 01:17:02;;;;;;;9.10;2.58;;;10.30;99.90;;;;;;5054125;28;20063;-66
2023/12/17 01:19:30;;;;;;;6.80;2.22;;;10.30;99.90;;;;;;5052842;28;20056;-65
2023/12/17 01:22:00;;;;;;;11.65;2.47;;;10.30;99.90;;;;;;5073891;28;20493;-65
2023/12/17 01:24:27;;;;;;;14.52;3.03;;;10.30;99.90;;;;;;5064442;28;20055;-65
2023/12/17 01:26:54;;;;;;;11.90;2.63;;;10.30;99.90;;;;;;5064666;28;20163;-65
2023/12/17 01:29:20;;;;;;;12.85;3.55;;;10.30;99.90;;;;;;5065281;28;20087;-65
2023/12/17 01:31:47;;;;;;;8.20;2.10;;;10.20;99.90;;;;;;5064872;28;20106;-64
2023/12/17 01:34:14;;;;;;;9.75;2.50;;;10.20;99.90;;;;;;5064458;28;20048;-64
2023/12/17 01:36:41;;;;;;;13.38;2.80;;;10.20;99.90;;;;;;5064341;28;20189;-65
2023/12/17 01:39:09;;;;;;;10.55;3.08;;;10.20;99.90;;;;;;5065315;28;20444;-63
2023/12/17 01:41:37;;;;;;;9.30;2.35;;;10.30;99.90;;;;;;5064067;28;20096;-64
2023/12/17 01:44:03;;;;;;;11.15;2.17;;;10.30;99.90;;;;;;5064726;28;20049;-65
2023/12/17 01:46:30;;;;;;;8.00;2.08;;;10.30;99.90;;;;;;5063815;28;20055;-64
2023/12/17 01:49:00;;;;;;;11.15;3.10;;;10.20;99.90;;;;;;5030509;28;20051;-65
2023/12/17 01:51:27;;;;;;;14.43;3.08;;;10.20;99.90;;;;;;5083320;28;20446;-65
2023/12/17 01:53:54;;;;;;;15.25;3.60;;;10.20;99.90;;;;;;5046784;28;20045;-65
2023/12/17 01:56:21;;;;;;;17.67;3.17;;;10.20;99.90;;;;;;5046608;28;20082;-65
2023/12/17 01:58:48;;;;;;;17.08;3.10;;;10.20;99.90;;;;;;5036685;28;1226097;-64
2023/12/17 02:01:15;;;;;;;11.10;2.10;;;10.20;99.90;;;;;;5065421;28;20136;-65
2023/12/17 02:03:43;;;;;;;15.48;4.60;;;10.20;99.90;;;;;;5080565;28;20102;-64
2023/12/17 02:06:10;;;;;;;10.55;3.13;;;10.20;99.90;;;;;;5062477;28;20508;-65
2023/12/17 02:08:37;;;;;;;10.63;2.58;;;10.20;99.90;;;;;;5064775;28;20091;-64
2023/12/17 02:11:04;;;;;;;12.05;2.70;;;10.20;99.90;;;;;;5047632;28;20392;-64
2023/12/17 02:13:31;;;;;;;15.70;2.85;;;10.20;99.90;;;;;;5064984;28;20049;-64
2023/12/17 02:15:58;;;;;;;10.15;2.17;;;10.20;99.90;;;;;;5062156;28;20702;-64
2023/12/17 02:18:25;;;;;;;31.08;4.32;;;10.20;99.90;;;;;;5065005;28;20317;-66
2023/12/17 02:20:53;;;;;;;13.35;2.72;;;10.20;99.90;;;;;;5064714;28;20113;-66
2023/12/17 02:23:20;;;;;;;11.00;2.53;;;10.20;99.90;;;;;;5065139;28;20139;-65
2023/12/17 02:25:47;;;;;;;8.40;1.98;;;10.20;99.90;;;;;;5027396;28;20052;-65
2023/12/17 02:28:14;;;;;;;7.30;1.85;;;10.20;99.90;;;;;;5063239;28;20413;-64
2023/12/17 02:30:41;;;;;;;12.27;2.90;;;10.20;99.90;;;;;;5065044;28;20080;-65
2023/12/17 02:33:07;;;;;;;13.63;2.85;;;10.20;99.90;;;;;;5063715;28;20496;-65
2023/12/17 02:35:35;;;;;;;11.10;2.08;;;10.10;99.90;;;;;;5064808;28;20090;-64
2023/12/17 02:38:02;;;;;;;9.95;1.90;;;10.10;99.90;;;;;;5064572;28;20594;-63
2023/12/17 02:40:29;;;;;;;15.15;2.17;;;10.10;99.90;;;;;;5064883;28;20044;-64
2023/12/17 02:42:56;;;;;;;13.00;3.15;;;10.10;99.90;;;;;;5064541;28;20507;-65
2023/12/17 02:45:23;;;;;;;15.15;2.17;;;10.10;99.90;;;;;;5063351;28;20052;-64
2023/12/17 02:47:50;;;;;;;13.77;2.15;;;10.10;99.90;;;;;;5064392;28;20155;-64
2023/12/17 02:50:17;;;;;;;9.82;1.90;;;10.10;99.90;;;;;;5064030;28;20479;-65
2023/12/17 02:52:43;;;;;;;10.30;1.95;;;10.10;99.90;;;;;;5046698;28;20052;-64
2023/12/17 02:55:11;;;;;;;13.23;2.40;;;10.10;99.90;;;;;;5063975;28;20098;-64
2023/12/17 02:57:37;;;;;;;11.20;2.90;;;10.00;99.90;;;;;;5063758;28;20487;-64
2023/12/17 03:00:05;;;;;;;12.00;2.72;;;10.00;99.90;;;;;;5079413;28;20061;-64
2023/12/17 03:02:32;;;;;;;19.27;3.90;;;10.00;99.90;;;;;;4713559;28;9999818;-65
2023/12/17 03:04:59;;;;;;;7.72;1.80;;;10.00;99.90;;;;;;5067755;28;20047;-64
2023/12/17 03:07:26;;;;;;;12.50;2.25;;;10.00;99.90;;;;;;5072753;28;20117;-64
2023/12/17 03:09:54;;;;;;;9.95;2.25;;;10.00;99.90;;;;;;5067152;28;20048;-63
2023/12/17 03:12:21;;;;;;;15.52;2.25;;;10.00;99.90;;;;;;5067674;28;20476;-63
2023/12/17 03:14:48;;;;;;;21.00;3.85;;;10.00;99.90;;;;;;5066554;28;20052;-64
2023/12/17 03:17:15;;;;;;;15.88;2.05;;;10.00;99.90;;;;;;5067554;28;20102;-64
2023/12/17 03:19:42;;;;;;;13.63;2.08;;;10.00;99.90;;;;;;5067222;28;20080;-63
2023/12/17 03:22:09;;;;;;;14.77;2.50;;;10.00;99.90;;;;;;5067612;28;20044;-64
2023/12/17 03:24:36;;;;;;;10.73;2.28;;;10.00;99.90;;;;;;5067056;28;20094;-64
2023/12/17 03:27:03;;;;;;;18.65;2.72;;;10.00;99.90;;;;;;5068180;28;20067;-65
2023/12/17 03:29:30;;;;;;;11.98;3.08;;;10.00;99.90;;;;;;5067590;28;20072;-64
2023/12/17 03:31:58;;;;;;;12.05;2.35;;;10.00;99.90;;;;;;5067127;28;20109;-64
2023/12/17 03:34:26;;;;;;;14.55;2.65;;;10.00;99.90;;;;;;5066903;28;20037;-63
2023/12/17 03:36:53;;;;;;;11.10;2.35;;;10.00;99.90;;;;;;5067283;28;20048;-65
2023/12/17 03:39:20;;;;;;;16.23;2.53;;;10.00;99.90;;;;;;5067704;28;20033;-64
2023/12/17 03:41:47;;;;;;;14.70;2.28;;;10.00;99.90;;;;;;5067180;28;20083;-64
2023/12/17 03:44:14;;;;;;;9.05;2.13;;;10.00;99.90;;;;;;5066801;28;20044;-64
2023/12/17 03:46:40;;;;;;;11.32;3.05;;;10.00;99.90;;;;;;5048689;28;20067;-64
2023/12/17 03:49:07;;;;;;;13.02;2.05;;;10.00;99.90;;;;;;5082770;28;20538;-64
2023/12/17 03:51:34;;;;;;;13.57;3.08;;;9.90;99.90;;;;;;5067559;28;20052;-64
2023/12/17 03:54:01;;;;;;;13.07;2.03;;;9.90;99.90;;;;;;5067093;28;20454;-63
2023/12/17 03:56:28;;;;;;;12.23;2.03;;;9.90;99.90;;;;;;5066526;28;20067;-63
2023/12/17 03:58:55;;;;;;;15.38;2.10;;;9.90;99.90;;;;;;5067837;28;20059;-63
2023/12/17 04:01:22;;;;;;;17.10;2.00;;;9.90;99.90;;;;;;5067573;28;20053;-63
2023/12/17 04:03:48;;;;;;;9.05;2.15;;;9.90;99.90;;;;;;5067359;28;20048;-63
2023/12/17 04:06:16;;;;;;;6.45;2.08;;;9.90;99.90;;;;;;5055281;28;20041;-62
2023/12/17 04:08:42;;;;;;;15.57;2.42;;;9.90;99.90;;;;;;5062044;28;20053;-66
2023/12/17 04:11:09;;;;;;;11.85;2.42;;;9.90;99.90;;;;;;5067774;28;20051;-65
2023/12/17 04:13:36;;;;;;;18.88;2.95;;;9.90;99.90;;;;;;5069021;28;20410;-65
2023/12/17 04:16:03;;;;;;;11.38;2.92;;;10.00;99.90;;;;;;5067122;28;20045;-64
2023/12/17 04:18:30;;;;;;;20.15;3.28;;;9.90;99.90;;;;;;5066276;28;20538;-65
2023/12/17 04:20:57;;;;;;;11.48;2.22;;;9.90;99.90;;;;;;5058341;28;20040;-65
2023/12/17 04:23:24;;;;;;;14.75;2.67;;;9.90;99.90;;;;;;5066067;28;20514;-65
2023/12/17 04:25:50;;;;;;;15.27;3.88;;;9.90;99.90;;;;;;5048392;28;20045;-64
2023/12/17 04:28:17;;;;;;;15.05;2.03;;;9.90;99.90;;;;;;5066207;28;20499;-65
2023/12/17 04:30:44;;;;;;;11.40;2.20;;;9.90;99.90;;;;;;5066315;28;20635;-65
2023/12/17 04:33:11;;;;;;;11.23;3.20;;;9.90;99.90;;;;;;5064783;28;20122;-65
2023/12/17 04:35:38;;;;;;;11.85;2.97;;;9.90;99.90;;;;;;5065866;28;20079;-65
2023/12/17 04:38:05;;;;;;;15.07;2.70;;;9.90;99.90;;;;;;5066079;28;20053;-66
2023/12/17 04:40:31;;;;;;;18.05;2.78;;;9.90;99.90;;;;;;5048675;28;20060;-65
2023/12/17 04:42:58;;;;;;;15.00;2.40;;;9.90;99.90;;;;;;5066396;28;20048;-65
2023/12/17 04:45:25;;;;;;;17.25;3.40;;;9.90;99.90;;;;;;5065865;28;20041;-65
2023/12/17 04:47:52;;;;;;;19.88;2.92;;;9.90;99.90;;;;;;5064591;28;20106;-65
2023/12/17 04:50:19;;;;;;;10.52;1.92;;;9.90;99.90;;;;;;5066335;28;20152;-65
2023/12/17 04:52:46;;;;;;;14.32;2.10;;;9.90;99.90;;;;;;5068043;28;20133;-64
2023/12/17 04:55:12;;;;;;;11.48;3.33;;;9.90;99.90;;;;;;5070019;28;20045;-64
2023/12/17 04:57:40;;;;;;;26.98;3.30;;;9.90;99.90;;;;;;5068303;28;20048;-65
2023/12/17 05:00:09;;;;;;;14.00;2.45;;;9.90;99.90;;;;;;5069857;28;20103;-65
2023/12/17 05:02:36;;;;;;;9.73;2.00;;;9.90;99.90;;;;;;4718121;28;10000373;-64
2023/12/17 05:05:03;;;;;;;17.13;3.22;;;9.80;99.90;;;;;;5045956;28;20055;-64
2023/12/17 05:07:30;;;;;;;24.25;4.20;;;9.90;99.90;;;;;;5066776;28;20056;-64
2023/12/17 05:09:57;;;;;;;13.73;2.28;;;9.90;99.90;;;;;;5035112;28;20044;-63
2023/12/17 05:12:24;;;;;;;17.00;2.25;;;9.80;99.90;;;;;;5069714;28;20105;-65
2023/12/17 05:14:51;;;;;;;13.60;2.83;;;9.80;99.90;;;;;;5068233;28;20041;-66
2023/12/17 05:17:18;;;;;;;19.70;2.83;;;9.80;99.90;;;;;;5067902;28;20044;-63
2023/12/17 05:19:44;;;;;;;12.50;2.67;;;9.80;99.90;;;;;;5069129;28;20078;-64
2023/12/17 05:22:12;;;;;;;16.20;2.85;;;9.80;99.90;;;;;;5069597;28;20052;-66
2023/12/17 05:24:39;;;;;;;20.48;2.97;;;9.80;99.90;;;;;;5069169;28;20094;-65
2023/12/17 05:27:05;;;;;;;9.27;2.08;;;9.70;99.90;;;;;;5069249;28;20094;-65
2023/12/17 05:29:32;;;;;;;12.10;2.50;;;9.70;99.90;;;;;;5069233;28;20060;-64
2023/12/17 05:31:59;;;;;;;14.30;2.28;;;9.80;99.90;;;;;;5069411;28;20503;-65
2023/12/17 05:34:26;;;;;;;18.23;3.33;;;9.80;99.90;;;;;;5067433;28;20317;-64
2023/12/17 05:36:53;;;;;;;16.38;2.50;;;9.70;99.90;;;;;;5066426;28;20045;-64
2023/12/17 05:39:20;;;;;;;20.35;4.47;;;9.80;99.90;;;;;;5069101;28;20040;-64
2023/12/17 05:41:46;;;;;;;22.00;3.10;;;9.80;99.90;;;;;;5069501;28;20146;-64
2023/12/17 05:44:13;;;;;;;12.75;2.60;;;9.80;99.90;;;;;;5068726;28;20280;-64
2023/12/17 05:46:40;;;;;;;17.55;3.05;;;9.80;99.90;;;;;;5064390;28;20059;-64
2023/12/17 05:49:07;;;;;;;10.43;2.85;;;9.80;99.90;;;;;;5051153;28;20075;-64
2023/12/17 05:51:34;;;;;;;17.55;4.25;;;9.70;99.90;;;;;;5068952;28;20080;-65
2023/12/17 05:54:01;;;;;;;19.08;2.95;;;9.70;99.90;;;;;;5068868;28;20131;-64
2023/12/17 05:56:28;;;;;;;19.05;3.15;;;9.70;99.90;;;;;;5068657;28;20059;-63
2023/12/17 05:58:55;;;;;;;16.40;2.78;;;9.70;99.90;;;;;;5068865;28;20056;-64
2023/12/17 06:01:22;;;;;;;17.33;3.10;;;9.60;99.90;;;;;;5068200;28;20067;-64
2023/12/17 06:03:49;;;;;;;13.40;2.85;;;9.60;99.90;;;;;;5067693;28;20044;-63
2023/12/17 06:06:16;;;;;;;11.70;3.03;;;9.60;99.90;;;;;;5068003;28;20059;-63
2023/12/17 06:08:43;;;;;;;21.50;3.55;;;9.60;99.90;;;;;;5068830;28;20098;-64
2023/12/17 06:11:14;;;;;;;19.58;3.50;;;9.60;99.90;;;;;;5068755;28;20041;-63
2023/12/17 06:13:41;;;;;;;19.48;2.97;;;9.50;99.90;;;;;;5068424;28;20044;-63
2023/12/17 06:16:08;;;;;;;14.77;3.10;;;9.50;99.90;;;;;;5068044;28;20080;-63
2023/12/17 06:18:35;;;;;;;12.70;2.90;;;9.50;99.90;;;;;;5050927;28;20048;-64
2023/12/17 06:21:02;;;;;;;16.05;4.43;;;9.50;99.90;;;;;;5071810;28;20123;-63
2023/12/17 06:23:30;;;;;;;15.15;3.25;;;9.50;99.90;;;;;;5068610;28;20049;-64
2023/12/17 06:25:57;;;;;;;14.70;2.88;;;9.50;99.90;;;;;;5067897;28;20044;-64
2023/12/17 06:28:24;;;;;;;13.90;3.03;;;9.50;99.90;;;;;;5025094;28;20044;-64
2023/12/17 06:30:51;;;;;;;18.95;3.30;;;9.50;99.90;;;;;;5061024;28;20080;-64
2023/12/17 06:33:18;;;;;;;22.67;5.45;;;9.50;99.90;;;;;;5067120;28;20087;-64
2023/12/17 06:35:45;;;;;;;17.33;3.50;;;9.50;99.90;;;;;;5067249;28;20488;-63
2023/12/17 06:38:13;;;;;;;12.88;3.65;;;9.50;99.90;;;;;;5067514;28;20227;-65
2023/12/17 06:40:40;;;;;;;17.08;3.42;;;9.50;99.90;;;;;;5067292;28;20048;-63
2023/12/17 06:43:07;;;;;;;15.55;3.08;;;9.50;99.90;;;;;;5050129;28;20117;-64
2023/12/17 06:45:34;;;;;;;17.42;3.00;;;9.50;99.90;;;;;;5067900;28;20190;-63
2023/12/17 06:48:01;;;;;;;18.98;3.40;;;9.50;99.90;;;;;;5067428;28;20060;-64
2023/12/17 06:50:28;;;;;;;20.60;3.80;;;9.50;99.90;;;;;;5067742;28;20170;-64
2023/12/17 06:52:55;;;;;;;12.98;3.33;;;9.50;99.90;;;;;;5067499;28;20468;-64
2023/12/17 06:55:22;;;;;;;21.13;4.00;;;9.50;99.90;;;;;;5067423;28;20109;-64
2023/12/17 06:57:49;;;;;;;19.75;3.08;;;9.50;99.90;;;;;;5067448;28;20164;-64
2023/12/17 07:00:16;;;;;;;17.45;3.58;;;9.50;99.90;;;;;;5067532;28;20324;-64
2023/12/17 07:02:44;;;;;;;23.73;3.75;;;9.50;99.90;;;;;;5067255;28;20058;-64
2023/12/17 07:05:11;;;;;;;19.63;4.50;;;9.50;99.90;;;;;;5067677;28;20510;-64
2023/12/17 07:07:38;;;;;;;13.43;3.65;;;9.50;99.90;;;;;;5082465;28;20127;-64
2023/12/17 07:10:06;;;;;;;20.75;3.67;;;9.50;99.90;;;;;;5067657;28;20056;-65
2023/12/17 07:12:33;;;;;;;13.07;3.38;;;9.50;99.90;;;;;;5067311;28;20044;-64
2023/12/17 07:15:00;;;;;;;19.33;3.88;;;9.50;99.90;;;;;;5067062;28;20053;-63
2023/12/17 07:17:27;;;;;;;19.08;3.97;;;9.50;99.90;;;;;;5066596;28;20127;-64
2023/12/17 07:19:54;;;;;;;20.05;4.50;;;9.50;99.90;;;;;;5067556;28;20467;-64
2023/12/17 07:22:22;;;;;;;16.30;4.10;;;9.50;99.90;;;;;;5067227;28;20068;-63
2023/12/17 07:24:49;;;;;;;16.83;3.97;;;9.50;99.90;;;;;;5065543;28;20542;-64
2023/12/17 07:27:16;;;;;;;19.98;4.43;;;9.50;99.90;;;;;;5065939;28;20456;-63
2023/12/17 07:29:43;;;;;;;12.23;3.63;;;9.40;99.90;;;;;;5067004;28;20094;-63
2023/12/17 07:32:10;;;;;;;28.75;3.78;;;9.40;99.90;;;;;;5067029;28;20385;-63
2023/12/17 07:34:37;;;;;;;15.35;3.47;;;9.30;99.90;;;;;;5066789;28;20444;-62
2023/12/17 07:37:04;;;;;;;11.85;2.92;;;9.30;99.90;;;;;;5066117;28;20084;-63
2023/12/17 07:39:31;;;;;;;15.23;5.53;;;9.30;99.90;;;;;;5067054;28;20041;-64
2023/12/17 07:41:58;;;;;;;26.00;4.57;;;9.30;99.90;;;;;;5066962;28;20107;-63
2023/12/17 07:44:27;;;;;;;17.95;4.50;;;9.30;99.90;;;;;;5066808;28;20048;-65
2023/12/17 07:46:53;;;;;;;18.13;4.13;;;9.30;99.90;;;;;;5063990;28;20105;-63
2023/12/17 07:49:20;;;;;;;19.48;4.43;;;9.30;99.90;;;;;;5066255;28;20080;-63
2023/12/17 07:51:48;;;;;;;19.23;3.78;;;9.30;99.90;;;;;;5048514;28;20077;-64
2023/12/17 07:54:15;;;;;;;19.17;3.80;;;9.30;99.90;;;;;;5066478;28;20044;-64
2023/12/17 07:56:42;;;;;;;17.98;3.55;;;9.30;99.90;;;;;;5060200;28;20053;-64
2023/12/17 07:59:09;;;;;;;16.63;3.88;;;9.30;99.90;;;;;;5066039;28;20055;-63
2023/12/17 08:01:36;;;;;;;18.63;3.67;;;9.20;99.90;;;;;;5066874;28;20045;-63
2023/12/17 08:04:03;;;;;;;18.98;4.07;;;9.20;99.90;;;;;;5066502;28;20051;-63
2023/12/17 08:06:30;;;;;;;17.23;4.30;;;9.20;99.90;;;;;;5066916;28;20044;-63
2023/12/17 08:09:00;;;;;;;12.35;3.28;;;9.20;99.90;;;;;;5065975;28;20090;-63
2023/12/17 08:11:27;;;;;;;23.23;3.83;;;9.10;99.90;;;;;;5066921;28;20072;-64
2023/12/17 08:13:54;;;;;;;14.52;3.08;;;9.10;99.90;;;;;;5066527;28;20049;-63
2023/12/17 08:16:21;;;;;;;13.10;3.50;;;9.10;99.90;;;;;;5066330;28;20052;-63
2023/12/17 08:18:48;;;;;;;16.30;4.40;;;9.00;99.90;;;;;;5066062;28;20123;-63
2023/12/17 08:21:14;;;;;;;12.90;3.40;;;9.00;99.90;;;;;;5066283;28;20060;-63
2023/12/17 08:23:42;;;;;;;26.27;4.53;;;9.00;99.90;;;;;;5066234;28;20048;-64
2023/12/17 08:26:10;;;;;;;14.75;3.72;;;9.10;99.90;;;;;;5059306;28;20059;-63
2023/12/17 08:28:37;;;;;;;15.77;3.20;;;9.00;99.90;;;;;;5043320;28;20114;-64
2023/12/17 08:31:09;;;;;;;11.60;3.97;;;9.10;99.90;;;;;;5064504;28;20114;-63
2023/12/17 08:33:37;;;;;;;16.55;4.15;;;9.10;99.90;;;;;;5065534;28;20049;-64
2023/12/17 08:36:04;;;;;;;14.73;3.85;;;9.10;99.90;;;;;;5062091;28;20041;-63
2023/12/17 08:38:31;;;;;;;15.98;4.18;;;9.10;99.90;;;;;;5058937;28;20044;-64
2023/12/17 08:41:00;;;;;;;19.02;4.50;;;9.10;99.90;;;;;;5069211;28;20046;-63
2023/12/17 08:43:27;;;;;;;18.85;4.25;;;9.10;99.90;;;;;;5070250;28;20500;-63
2023/12/17 08:45:54;;;;;;;22.95;4.20;;;9.10;99.90;;;;;;5069345;28;20094;-63
2023/12/17 08:48:21;;;;;;;20.02;5.55;;;9.20;99.90;;;;;;5083486;28;20044;-63
2023/12/17 08:50:48;;;;;;;17.98;4.00;;;9.30;99.90;;;;;;5076526;28;20047;-63
2023/12/17 08:53:15;;;;;;;16.65;3.72;;;9.20;99.90;;;;;;5078476;28;20044;-64
2023/12/17 08:55:42;;;;;;;12.43;3.15;;;9.20;99.90;;;;;;5076002;28;20053;-64
2023/12/17 08:58:09;;;;;;;15.02;3.65;;;9.20;99.90;;;;;;5069836;28;20565;-64
2023/12/17 09:00:36;;;;;;;25.58;4.43;;;9.30;99.90;;;;;;5069158;28;20179;-64
2023/12/17 09:03:03;;;;;;;23.48;4.47;;;9.30;99.90;;;;;;5068877;28;20063;-64
2023/12/17 09:05:30;;;;;;;15.70;4.32;;;9.30;99.90;;;;;;5077098;28;20048;-64
2023/12/17 09:07:57;;;;;;;22.38;3.42;;;9.30;99.90;;;;;;5073637;28;20102;-64
2023/12/17 09:10:24;;;;;;;15.77;3.60;;;9.30;99.90;;;;;;5079884;28;20132;-64
2023/12/17 09:12:51;;;;;;;14.18;3.78;;;9.40;99.90;;;;;;5076219;28;20428;-63
2023/12/17 09:15:18;;;;;;;24.92;4.68;;;9.50;99.90;;;;;;5075955;28;20047;-62
2023/12/17 09:17:45;;;;;;;13.52;3.67;;;9.40;99.90;;;;;;5066903;28;20048;-62
2023/12/17 09:20:13;;;;;;;17.17;4.10;;;9.50;99.90;;;;;;5066411;28;20070;-62
2023/12/17 09:22:40;;;;;;;18.73;4.35;;;9.50;99.90;;;;;;5068678;28;20056;-63
2023/12/17 09:25:08;;;;;;;14.18;3.95;;;9.60;99.90;;;;;;5067454;28;20056;-63
2023/12/17 09:27:35;;;;;;;15.18;3.70;;;9.60;99.90;;;;;;5051835;28;20608;-63
2023/12/17 09:30:02;;;;;;;13.60;3.40;;;9.60;99.90;;;;;;5069002;28;20052;-63
2023/12/17 09:32:30;;;;;;;16.02;3.58;;;9.60;99.90;;;;;;5066331;28;20039;-62
2023/12/17 09:34:57;;;;;;;20.38;4.00;;;9.70;99.90;;;;;;5059631;28;20040;-62
2023/12/17 09:37:23;;;;;;;15.32;3.63;;;9.70;99.90;;;;;;5065814;28;20049;-62
2023/12/17 09:39:50;;;;;;;18.35;4.97;;;9.80;99.90;;;;;;5067596;28;20052;-62
2023/12/17 09:42:20;;;;;;;18.95;3.70;;;9.70;99.90;;;;;;5066880;28;20079;-62
2023/12/17 09:44:47;;;;;;;10.05;3.00;;;9.70;99.90;;;;;;5049035;28;20063;-63
2023/12/17 09:47:14;;;;;;;20.58;3.40;;;9.70;99.90;;;;;;5069437;28;20519;-62
2023/12/17 09:49:41;;;;;;;29.35;5.32;;;9.70;99.90;;;;;;5044813;28;20053;-62
2023/12/17 09:52:08;;;;;;;18.25;3.72;;;9.70;99.90;;;;;;5066505;28;20135;-63
2023/12/17 09:54:36;;;;;;;17.17;3.35;;;9.80;99.90;;;;;;5064629;28;20048;-62
2023/12/17 09:57:03;;;;;;;9.93;2.88;;;9.80;99.90;;;;;;5065739;28;20033;-62
2023/12/17 09:59:30;;;;;;;14.18;2.75;;;9.70;99.90;;;;;;5027823;28;20053;-62
2023/12/17 10:01:56;;;;;;;19.25;3.47;;;9.80;99.90;;;;;;5046851;28;20041;-63
2023/12/17 10:04:24;;;;;;;24.10;3.65;;;9.90;99.90;;;;;;5051412;28;20045;-63
2023/12/17 10:06:51;;;;;;;20.17;3.33;;;9.90;99.90;;;;;;5049748;28;20633;-63
2023/12/17 10:09:18;;;;;;;17.95;3.25;;;9.90;99.90;;;;;;5052338;28;20106;-63
2023/12/17 10:11:46;;;;;;;15.95;3.13;;;10.00;99.90;;;;;;5045043;28;20068;-63
2023/12/17 10:14:23;;;;;;;27.02;5.38;;;9.90;99.90;;;;;;5053028;28;20041;-63
2023/12/17 10:16:50;;;;;;;15.40;2.90;;;9.90;99.90;;;;;;5045204;28;20045;-63
2023/12/17 10:19:18;;;;;;;10.30;2.78;;;9.90;99.90;;;;;;5045740;28;20044;-63
2023/12/17 10:21:45;;;;;;;10.18;2.65;;;9.90;99.90;;;;;;5045695;28;20049;-63
2023/12/17 10:24:12;;;;;;;17.92;3.13;;;10.00;99.90;;;;;;5048529;28;20095;-63
2023/12/17 10:26:47;;;;;;;18.73;3.95;;;10.00;99.90;;;;;;5046692;28;20523;-63
2023/12/17 10:29:14;;;;;;;15.93;2.60;;;10.00;99.90;;;;;;5047699;28;20044;-63
2023/12/17 10:31:42;;;;;;;11.35;2.40;;;10.00;99.90;;;;;;5046404;28;20531;-63
2023/12/17 10:34:24;;;;;;;13.43;2.22;;;10.00;99.90;;;;;;5047456;28;20095;-63
2023/12/17 10:36:52;;;;;;;12.10;2.60;;;10.00;99.90;;;;;;5045706;28;20048;-64
2023/12/17 10:39:19;;;;;;;14.18;2.80;;;10.10;99.90;;;;;;5049435;28;20045;-62
2023/12/17 10:41:47;;;;;;;15.23;2.60;;;10.20;99.90;;;;;;5048167;28;20455;-63
2023/12/17 10:44:14;;;;;;;15.70;2.92;;;10.20;99.90;;;;;;5047288;28;20113;-64
2023/12/17 10:46:43;;;;;;;13.57;3.45;;;10.20;99.90;;;;;;5047645;28;20061;-64
2023/12/17 10:49:10;;;;;;;7.18;2.38;;;10.30;99.90;;;;;;5047638;28;20080;-63
2023/12/17 10:51:38;;;;;;;12.82;2.95;;;10.30;99.90;;;;;;5046850;28;20404;-62
2023/12/17 10:54:08;;;;;;;14.63;2.60;;;10.30;99.90;;;;;;5050536;28;20104;-64
2023/12/17 10:56:39;;;;;;;14.35;2.97;;;10.30;99.90;;;;;;5047510;28;20056;-63
2023/12/17 10:59:08;;;;;;;12.95;3.00;;;10.30;99.90;;;;;;5053193;28;20052;-63
2023/12/17 11:01:36;;;;;;;14.20;2.50;;;10.30;99.90;;;;;;5067045;28;20110;-63
2023/12/17 11:04:03;;;;;;;17.88;3.35;;;10.40;99.90;;;;;;5087846;28;20044;-63
2023/12/17 11:06:30;;;;;;;13.10;3.33;;;10.40;99.90;;;;;;5066899;28;20040;-64
2023/12/17 11:08:57;;;;;;;11.98;3.42;;;10.40;99.90;;;;;;5067929;28;20045;-63
2023/12/17 11:11:24;;;;;;;12.13;2.95;;;10.40;99.90;;;;;;5066923;28;20043;-62
2023/12/17 11:13:51;;;;;;;17.33;2.65;;;10.50;99.90;;;;;;5082579;28;20052;-63
2023/12/17 11:16:25;;;;;;;17.10;2.70;;;10.50;99.90;;;;;;5067138;28;20128;-63
2023/12/17 11:18:52;;;;;;;14.40;2.45;;;10.50;99.90;;;;;;5076202;28;20048;-63
2023/12/17 11:21:19;;;;;;;19.05;3.58;;;10.50;99.90;;;;;;5066782;28;20070;-63
2023/12/17 11:23:49;;;;;;;16.60;3.40;;;10.50;99.90;;;;;;5082402;28;20052;-62
2023/12/17 11:26:17;;;;;;;14.15;2.60;;;10.50;99.90;;;;;;5066455;28;20579;-63
2023/12/17 11:28:45;;;;;;;11.18;3.00;;;10.60;99.90;;;;;;5072426;28;20141;-63
2023/12/17 11:31:12;;;;;;;12.77;3.00;;;10.70;99.90;;;;;;5066349;28;20921;-62
2023/12/17 11:33:39;;;;;;;16.20;2.80;;;10.70;99.90;;;;;;5049218;28;20054;-63
2023/12/17 11:36:08;;;;;;;10.88;2.75;;;10.60;99.90;;;;;;5073779;28;20412;-64
2023/12/17 11:38:35;;;;;;;16.13;3.22;;;10.70;99.90;;;;;;5048904;28;20052;-63
2023/12/17 11:41:03;;;;;;;15.93;2.70;;;10.70;99.90;;;;;;5066559;28;20487;-64
2023/12/17 11:43:31;;;;;;;9.93;2.90;;;10.70;99.90;;;;;;5051326;28;20261;-64
2023/12/17 11:45:57;;;;;;;12.88;2.80;;;10.70;99.90;;;;;;5066883;28;20052;-64
2023/12/17 11:48:26;;;;;;;11.25;2.53;;;10.70;99.90;;;;;;5069637;28;20109;-63
2023/12/17 11:50:56;;;;;;;18.77;2.70;;;10.70;99.90;;;;;;5066417;28;20696;-63
2023/12/17 11:53:24;;;;;;;17.63;3.47;;;10.70;99.90;;;;;;5066057;28;20147;-63
2023/12/17 11:55:59;;;;;;;14.85;2.95;;;10.70;99.90;;;;;;5063877;28;20044;-64
2023/12/17 11:58:26;;;;;;;19.95;4.18;;;10.70;99.90;;;;;;5066494;28;20441;-62
2023/12/17 12:01:28;;;;;;;14.02;2.25;;;10.70;99.90;;;;;;5067089;28;20087;-63
2023/12/17 12:03:59;;;;;;;10.63;2.63;;;10.70;99.90;;;;;;4975649;28;20051;-63
2023/12/17 12:06:27;;;;;;;17.92;4.28;;;10.70;99.90;;;;;;5035989;28;20044;-63
2023/12/17 12:08:54;;;;;;;11.00;2.10;;;10.70;99.90;;;;;;5052715;28;20053;-63
2023/12/17 12:11:21;;;;;;;13.02;3.13;;;10.70;99.90;;;;;;5070275;28;20044;-63
2023/12/17 12:13:48;;;;;;;16.63;3.00;;;10.80;99.90;;;;;;5070375;28;20620;-64
2023/12/17 12:16:17;;;;;;;10.32;2.78;;;10.80;99.90;;;;;;5051619;28;20071;-63
2023/12/17 12:18:45;;;;;;;9.98;2.92;;;10.90;99.90;;;;;;5070443;28;20044;-63
2023/12/17 12:21:19;;;;;;;11.23;3.80;;;10.80;99.90;;;;;;5070101;28;20071;-64
2023/12/17 12:23:50;;;;;;;14.38;3.35;;;10.80;99.90;;;;;;5044764;28;20051;-63
2023/12/17 12:26:18;;;;;;;16.73;3.63;;;10.80;99.90;;;;;;5085076;28;20044;-63
2023/12/17 12:28:50;;;;;;;15.18;3.47;;;10.90;99.90;;;;;;5069081;28;20045;-63
2023/12/17 12:31:17;;;;;;;14.75;2.63;;;11.00;99.90;;;;;;5070042;28;20143;-63
2023/12/17 12:33:59;;;;;;;14.07;3.08;;;11.00;99.90;;;;;;5071500;28;20048;-63
2023/12/17 12:36:40;;;;;;;25.00;6.03;;;10.90;99.90;;;;;;5069677;28;20109;-63
2023/12/17 12:39:07;;;;;;;14.50;2.97;;;10.90;99.90;;;;;;5057985;28;20086;-63
2023/12/17 12:41:34;;;;;;;14.40;3.38;;;11.00;99.90;;;;;;5069938;28;20083;-64
2023/12/17 12:44:02;;;;;;;17.02;3.33;;;11.00;99.90;;;;;;5069282;28;20045;-64